Time;durP1;ratioP1;P1;durP2;ratioP2;P2;SDS_P1;SDS_P2;PMS_P1;PMS_P2;Temp;Humidity;BMP_temperature;BMP_pressure;BME280_temperature;BME280_humidity;BME280_pressure;Samples;Min_cycle;Max_cycle;Signal;HPM_P1;HPM_P2
2022/08/03 00:01:37;;;;;;;7.38;3.03;;;20.80;98.00;;;;;;4993316;28;20387;-88
2022/08/03 00:04:07;;;;;;;3.80;2.85;;;20.80;98.20;;;;;;4989745;28;20026;-89
2022/08/03 00:06:33;;;;;;;3.25;2.55;;;20.80;98.30;;;;;;4993952;28;20030;-90
2022/08/03 00:08:58;;;;;;;4.63;3.33;;;20.70;98.50;;;;;;4997949;28;20053;-90
2022/08/03 00:11:25;;;;;;;5.00;3.40;;;20.70;98.60;;;;;;4997963;28;20475;-90
2022/08/03 00:13:50;;;;;;;4.15;3.20;;;20.70;98.70;;;;;;4996169;28;20033;-91
2022/08/03 00:16:16;;;;;;;5.70;3.28;;;20.70;98.90;;;;;;4994037;28;20030;-91
2022/08/03 00:18:42;;;;;;;4.22;3.33;;;20.60;99.10;;;;;;4994112;28;20030;-91
2022/08/03 00:21:08;;;;;;;4.57;2.65;;;20.60;99.40;;;;;;4992032;28;20122;-88
2022/08/03 00:23:34;;;;;;;4.22;2.90;;;20.60;99.50;;;;;;4993997;28;20114;-88
2022/08/03 00:26:00;;;;;;;4.40;3.00;;;20.60;99.70;;;;;;4985582;28;20677;-89
2022/08/03 00:28:26;;;;;;;3.45;2.80;;;20.60;99.80;;;;;;5008894;28;20379;-90
2022/08/03 00:30:52;;;;;;;5.30;3.10;;;20.60;99.90;;;;;;4991896;28;20029;-91
2022/08/03 00:33:18;;;;;;;4.65;2.75;;;20.50;99.90;;;;;;4992134;28;20019;-90
2022/08/03 00:35:44;;;;;;;4.18;2.63;;;20.50;99.90;;;;;;4989433;28;20402;-90
2022/08/03 00:38:10;;;;;;;4.53;3.28;;;20.50;99.90;;;;;;4990180;28;20501;-90
2022/08/03 00:40:35;;;;;;;4.95;3.00;;;20.50;99.90;;;;;;4992039;28;20231;-90
2022/08/03 00:43:04;;;;;;;3.00;2.45;;;20.50;99.90;;;;;;4991159;28;20618;-89
2022/08/03 00:45:33;;;;;;;3.67;2.90;;;20.50;99.90;;;;;;4989224;28;20046;-90
2022/08/03 00:47:59;;;;;;;4.07;2.58;;;20.40;99.90;;;;;;4989862;28;20049;-90
2022/08/03 00:50:27;;;;;;;3.10;2.50;;;20.40;99.90;;;;;;4988207;28;20123;-90
2022/08/03 00:52:55;;;;;;;4.30;2.90;;;20.40;99.90;;;;;;4990051;28;20117;-91
2022/08/03 00:55:20;;;;;;;2.97;2.53;;;20.40;99.90;;;;;;5007497;28;20018;-91
2022/08/03 00:57:46;;;;;;;3.28;2.50;;;20.40;99.90;;;;;;4987509;28;20096;-90
2022/08/03 01:00:18;;;;;;;3.03;2.53;;;20.40;99.90;;;;;;4989095;28;20031;-91
2022/08/03 01:02:44;;;;;;;2.50;2.30;;;20.30;99.90;;;;;;4992920;28;20082;-91
2022/08/03 01:05:10;;;;;;;3.90;3.17;;;20.30;99.90;;;;;;4991769;28;20553;-91
2022/08/03 01:07:38;;;;;;;6.38;2.72;;;20.30;99.90;;;;;;4991228;28;20043;-91
2022/08/03 01:10:26;;;;;;;3.03;2.63;;;20.30;99.90;;;;;;4992233;28;20022;-90
2022/08/03 01:13:06;;;;;;;4.10;2.67;;;20.30;99.90;;;;;;4986120;28;20027;-89
2022/08/03 01:15:53;;;;;;;4.00;2.72;;;20.30;99.90;;;;;;4991718;28;20058;-90
2022/08/03 01:18:43;;;;;;;3.05;2.38;;;20.30;99.90;;;;;;4990936;28;20023;-90
2022/08/03 01:21:25;;;;;;;2.65;2.35;;;20.30;99.90;;;;;;4989941;28;20025;-90
2022/08/03 01:24:20;;;;;;;3.10;2.50;;;20.30;99.90;;;;;;4990291;28;20022;-92
2022/08/03 01:26:58;;;;;;;4.00;2.75;;;20.20;99.90;;;;;;4992202;28;20042;-89
2022/08/03 01:29:51;;;;;;;3.47;2.58;;;20.20;99.90;;;;;;4989380;28;20128;-89
2022/08/03 01:32:26;;;;;;;5.55;2.80;;;20.20;99.90;;;;;;4985585;28;20678;-90
2022/08/03 01:35:02;;;;;;;3.58;2.55;;;20.20;99.90;;;;;;4989633;28;20049;-89
2022/08/03 01:37:38;;;;;;;3.15;2.58;;;20.20;99.90;;;;;;4991891;28;20478;-90
2022/08/03 01:40:05;;;;;;;3.97;2.28;;;20.10;99.90;;;;;;5002459;28;20038;-90
2022/08/03 01:42:32;;;;;;;3.00;2.50;;;20.10;99.90;;;;;;4992962;28;20042;-90
2022/08/03 01:44:59;;;;;;;3.95;2.28;;;20.10;99.90;;;;;;4987920;28;20097;-88
2022/08/03 01:47:27;;;;;;;3.17;2.65;;;20.10;99.90;;;;;;4987700;28;20026;-87
2022/08/03 01:49:56;;;;;;;2.63;2.28;;;20.10;99.90;;;;;;4987650;28;20030;-87
2022/08/03 01:52:23;;;;;;;4.00;2.58;;;20.00;99.90;;;;;;4987792;28;20577;-87
2022/08/03 01:54:51;;;;;;;3.67;3.13;;;20.00;99.90;;;;;;4988966;28;20046;-87
2022/08/03 01:57:18;;;;;;;3.92;2.40;;;20.00;99.90;;;;;;4988618;28;20458;-88
2022/08/03 01:59:47;;;;;;;2.70;2.30;;;20.00;99.90;;;;;;4987501;28;20027;-88
2022/08/03 02:02:15;;;;;;;2.53;2.05;;;20.00;99.90;;;;;;4984549;28;20073;-87
2022/08/03 02:04:42;;;;;;;3.00;2.42;;;19.90;99.90;;;;;;4987900;28;20054;-88
2022/08/03 02:07:10;;;;;;;3.42;2.50;;;19.90;99.90;;;;;;4988320;28;20077;-87
2022/08/03 02:09:40;;;;;;;3.15;2.42;;;19.90;99.90;;;;;;4987459;28;20069;-87
2022/08/03 02:12:09;;;;;;;2.85;2.60;;;19.90;99.90;;;;;;4989902;28;20023;-88
2022/08/03 02:14:37;;;;;;;3.28;2.78;;;19.90;99.90;;;;;;4988914;28;20065;-89
2022/08/03 02:17:05;;;;;;;3.35;2.38;;;19.80;99.90;;;;;;4987276;28;20026;-88
2022/08/03 02:19:32;;;;;;;4.88;2.40;;;19.80;99.90;;;;;;4992284;28;20551;-88
2022/08/03 02:21:58;;;;;;;4.28;2.50;;;19.80;99.90;;;;;;4992236;28;20065;-87
2022/08/03 02:24:24;;;;;;;3.45;2.67;;;19.80;99.90;;;;;;4989350;28;20443;-88
2022/08/03 02:26:54;;;;;;;4.40;2.80;;;19.80;99.90;;;;;;4990990;28;20125;-89
2022/08/03 02:29:23;;;;;;;3.90;2.70;;;19.70;99.90;;;;;;4992349;28;20030;-88
2022/08/03 02:31:50;;;;;;;3.17;2.50;;;19.70;99.90;;;;;;4992739;28;20117;-88
2022/08/03 02:34:20;;;;;;;3.90;2.88;;;19.70;99.90;;;;;;4992537;28;20367;-88
2022/08/03 02:36:50;;;;;;;4.72;2.83;;;19.60;99.90;;;;;;4991730;28;20077;-88
2022/08/03 02:39:19;;;;;;;6.68;3.97;;;19.60;99.90;;;;;;4989652;28;20925;-88
2022/08/03 02:41:51;;;;;;;7.82;3.85;;;19.60;99.90;;;;;;4986561;28;20041;-88
2022/08/03 02:44:23;;;;;;;3.85;3.20;;;19.60;99.90;;;;;;4992179;28;20096;-88
2022/08/03 02:46:56;;;;;;;7.05;2.80;;;19.50;99.90;;;;;;4992658;28;20031;-88
2022/08/03 02:49:23;;;;;;;3.35;2.55;;;19.50;99.90;;;;;;4993172;28;20030;-88
2022/08/03 02:51:52;;;;;;;3.42;2.72;;;19.50;99.90;;;;;;4990270;28;20035;-88
2022/08/03 02:54:18;;;;;;;2.95;2.30;;;19.50;99.90;;;;;;4991052;28;20506;-88
2022/08/03 02:56:46;;;;;;;3.35;2.95;;;19.40;99.90;;;;;;4988263;28;20038;-88
2022/08/03 02:59:13;;;;;;;4.93;2.33;;;19.40;99.90;;;;;;4991079;28;20112;-87
2022/08/03 03:01:39;;;;;;;3.72;2.78;;;19.40;99.90;;;;;;5014116;28;20026;-88
2022/08/03 03:04:06;;;;;;;6.45;3.78;;;19.40;99.90;;;;;;5016589;28;20031;-88
2022/08/03 03:06:32;;;;;;;4.63;3.50;;;19.30;99.90;;;;;;5016490;28;20102;-88
2022/08/03 03:08:59;;;;;;;6.00;3.58;;;19.30;99.90;;;;;;5029644;28;20049;-90
2022/08/03 03:11:25;;;;;;;7.95;3.90;;;19.30;99.90;;;;;;5012609;28;20031;-89
2022/08/03 03:13:52;;;;;;;4.80;3.75;;;19.30;99.90;;;;;;5014881;28;20050;-89
2022/08/03 03:16:19;;;;;;;5.10;4.28;;;19.30;99.90;;;;;;5003028;28;20034;-88
2022/08/03 03:18:48;;;;;;;9.02;4.93;;;19.30;99.90;;;;;;4994752;28;20438;-89
2022/08/03 03:21:17;;;;;;;5.60;4.40;;;19.30;99.90;;;;;;4994061;28;20034;-89
2022/08/03 03:23:45;;;;;;;8.85;4.90;;;19.30;99.90;;;;;;4991634;28;20025;-89
2022/08/03 03:26:13;;;;;;;7.25;4.93;;;19.30;99.90;;;;;;4992569;28;20069;-89
2022/08/03 03:28:39;;;;;;;7.28;5.68;;;19.20;99.90;;;;;;4991072;28;20034;-89
2022/08/03 03:31:06;;;;;;;7.97;5.28;;;19.20;99.90;;;;;;4991876;28;20031;-88
2022/08/03 03:33:36;;;;;;;5.72;5.05;;;19.20;99.90;;;;;;4993801;28;20041;-88
2022/08/03 03:36:03;;;;;;;7.13;5.72;;;19.20;99.90;;;;;;4994429;28;20498;-88
2022/08/03 03:38:29;;;;;;;7.60;5.28;;;19.10;99.90;;;;;;4993077;28;20441;-88
2022/08/03 03:40:55;;;;;;;8.15;6.47;;;19.10;99.90;;;;;;4994141;28;20029;-88
2022/08/03 03:43:22;;;;;;;8.80;6.22;;;19.00;99.90;;;;;;4989999;28;20109;-88
2022/08/03 03:45:50;;;;;;;9.35;6.75;;;19.00;99.90;;;;;;4992720;28;20089;-88
2022/08/03 03:48:16;;;;;;;6.68;5.78;;;19.00;99.90;;;;;;4992430;28;20018;-88
2022/08/03 03:50:42;;;;;;;10.05;5.93;;;19.00;99.90;;;;;;4988504;28;20475;-87
2022/08/03 03:53:10;;;;;;;7.22;6.13;;;19.00;99.90;;;;;;4989724;28;20061;-88
2022/08/03 03:55:37;;;;;;;8.40;5.18;;;19.00;99.90;;;;;;4991480;28;20022;-87
2022/08/03 03:58:03;;;;;;;6.88;4.40;;;18.90;99.90;;;;;;4986626;28;20054;-88
2022/08/03 04:00:29;;;;;;;6.95;4.80;;;18.90;99.90;;;;;;4991579;28;20389;-89
2022/08/03 04:02:55;;;;;;;8.45;5.43;;;18.90;99.90;;;;;;4989104;28;20026;-89
2022/08/03 04:11:06;;;;;;;8.40;4.22;;;18.80;99.90;;;;;;4991298;28;19934;-89
2022/08/03 04:13:42;;;;;;;7.85;3.30;;;18.80;99.90;;;;;;5003413;28;20471;-89
2022/08/03 04:16:11;;;;;;;5.80;3.05;;;18.70;99.90;;;;;;4992216;28;20036;-89
2022/08/03 04:18:40;;;;;;;4.70;3.38;;;18.70;99.90;;;;;;4988943;28;20037;-89
2022/08/03 04:21:10;;;;;;;6.93;3.90;;;18.80;99.90;;;;;;4989081;28;20035;-89
2022/08/03 04:23:40;;;;;;;4.40;2.92;;;18.80;99.90;;;;;;4990845;28;20038;-90
2022/08/03 04:26:10;;;;;;;7.25;3.30;;;18.70;99.90;;;;;;4988927;28;20113;-89
2022/08/03 04:28:38;;;;;;;3.38;2.40;;;18.70;99.90;;;;;;4989080;28;20076;-90
2022/08/03 04:31:06;;;;;;;6.38;2.63;;;18.70;99.90;;;;;;4987555;28;20022;-88
2022/08/03 04:33:34;;;;;;;9.27;2.70;;;18.70;99.90;;;;;;4989943;28;20036;-89
2022/08/03 04:36:02;;;;;;;4.50;2.67;;;18.70;99.90;;;;;;4986773;28;20097;-88
2022/08/03 04:38:35;;;;;;;7.28;2.65;;;18.70;99.90;;;;;;4985515;28;20062;-88
2022/08/03 04:41:01;;;;;;;4.28;2.65;;;18.70;99.90;;;;;;4986282;28;20027;-88
2022/08/03 04:43:28;;;;;;;5.45;2.95;;;18.80;99.90;;;;;;4990627;28;20032;-88
2022/08/03 04:45:55;;;;;;;6.07;3.03;;;18.80;99.90;;;;;;4992567;28;20049;-88
2022/08/03 04:48:21;;;;;;;3.65;2.33;;;18.80;99.90;;;;;;4988416;28;20499;-89
2022/08/03 04:50:47;;;;;;;5.47;2.95;;;18.90;99.90;;;;;;4985015;28;20049;-88
2022/08/03 04:53:13;;;;;;;7.13;2.88;;;18.90;99.90;;;;;;4981778;28;20117;-89
2022/08/03 04:55:38;;;;;;;6.70;3.63;;;19.00;99.90;;;;;;4981947;28;20030;-89
2022/08/03 04:58:05;;;;;;;7.20;4.57;;;19.00;99.90;;;;;;4987641;28;20090;-87
2022/08/03 05:00:30;;;;;;;5.85;4.00;;;19.20;99.90;;;;;;4985634;28;20211;-88
2022/08/03 05:02:56;;;;;;;5.13;4.03;;;19.30;99.90;;;;;;4984991;28;20146;-88
2022/08/03 05:05:22;;;;;;;9.23;4.22;;;19.40;99.90;;;;;;4988685;28;20038;-85
2022/08/03 05:07:48;;;;;;;6.55;4.55;;;19.50;99.90;;;;;;4979211;28;20483;-83
2022/08/03 05:10:16;;;;;;;5.95;5.22;;;19.60;99.90;;;;;;4983964;28;20112;-78
2022/08/03 05:12:42;;;;;;;8.63;5.28;;;19.70;99.90;;;;;;4983861;28;20058;-81
2022/08/03 05:15:09;;;;;;;6.22;5.25;;;19.80;99.90;;;;;;4984350;28;20386;-80
2022/08/03 05:17:35;;;;;;;8.23;5.72;;;20.00;99.90;;;;;;4987063;28;20026;-80
2022/08/03 05:20:03;;;;;;;9.32;5.20;;;20.10;99.90;;;;;;4988918;28;20029;-92
2022/08/03 05:22:28;;;;;;;9.68;5.40;;;20.20;99.90;;;;;;4984318;28;20022;-80
2022/08/03 05:24:54;;;;;;;8.05;5.85;;;20.30;99.90;;;;;;4985815;28;20027;-90
2022/08/03 05:27:20;;;;;;;8.50;6.20;;;20.40;99.90;;;;;;4991455;28;20691;-80
2022/08/03 05:29:47;;;;;;;11.05;6.38;;;20.60;99.90;;;;;;4988818;28;20031;-80
2022/08/03 05:32:13;;;;;;;9.63;5.90;;;20.70;99.90;;;;;;4988617;28;20023;-79
2022/08/03 05:34:39;;;;;;;9.30;5.82;;;20.80;99.90;;;;;;4985037;28;20049;-77
2022/08/03 05:37:06;;;;;;;9.13;5.75;;;20.90;99.90;;;;;;4990041;28;20474;-85
2022/08/03 05:39:33;;;;;;;9.52;6.13;;;21.00;99.90;;;;;;4984965;28;20026;-81
2022/08/03 05:41:59;;;;;;;8.90;4.80;;;21.10;99.90;;;;;;4991711;28;20096;-79
2022/08/03 05:44:24;;;;;;;11.15;5.00;;;21.30;99.90;;;;;;5001872;28;20078;-82
2022/08/03 05:46:50;;;;;;;9.30;4.53;;;21.40;99.90;;;;;;4982119;28;20041;-78
2022/08/03 05:49:17;;;;;;;7.15;4.47;;;21.60;99.90;;;;;;4985336;28;20043;-79
2022/08/03 05:51:42;;;;;;;4.50;3.65;;;21.80;99.90;;;;;;4980036;28;20045;-76
2022/08/03 05:54:08;;;;;;;8.07;4.68;;;22.00;99.90;;;;;;4991274;28;20490;-79
2022/08/03 05:56:34;;;;;;;8.32;4.03;;;22.10;99.90;;;;;;4992175;28;20049;-79
2022/08/03 05:58:59;;;;;;;8.63;4.43;;;22.20;99.90;;;;;;4994239;28;20030;-85
2022/08/03 06:01:25;;;;;;;6.30;4.32;;;22.30;99.90;;;;;;4985876;28;20034;-78
2022/08/03 06:03:51;;;;;;;7.82;4.50;;;22.40;99.90;;;;;;4990363;28;20034;-79
2022/08/03 06:06:17;;;;;;;6.78;4.32;;;22.60;99.90;;;;;;4994200;28;20120;-88
2022/08/03 06:08:44;;;;;;;7.50;4.90;;;22.70;99.90;;;;;;4991226;28;20038;-86
2022/08/03 06:11:11;;;;;;;5.93;4.47;;;22.80;99.90;;;;;;4994859;28;20026;-86
2022/08/03 06:13:37;;;;;;;7.90;4.35;;;22.90;99.90;;;;;;4990145;28;20053;-85
2022/08/03 06:16:03;;;;;;;7.15;4.50;;;22.90;99.90;;;;;;4997683;28;20018;-78
2022/08/03 06:18:29;;;;;;;8.55;4.25;;;23.10;99.90;;;;;;4994109;28;20181;-81
2022/08/03 06:20:55;;;;;;;6.03;4.22;;;23.10;99.90;;;;;;4993076;28;20553;-85
2022/08/03 06:23:21;;;;;;;6.78;4.15;;;23.20;99.90;;;;;;4982913;28;20041;-82
2022/08/03 06:25:46;;;;;;;7.40;4.25;;;23.30;99.90;;;;;;4991726;28;20505;-82
2022/08/03 06:28:17;;;;;;;5.60;4.57;;;23.30;99.90;;;;;;4993358;28;20026;-83
2022/08/03 06:30:43;;;;;;;5.07;4.57;;;23.20;99.90;;;;;;5001273;28;20030;-83
2022/08/03 06:33:09;;;;;;;10.23;4.40;;;22.90;99.90;;;;;;4991428;28;20026;-83
2022/08/03 06:35:34;;;;;;;8.93;5.10;;;22.80;99.90;;;;;;4985973;28;20034;-83
2022/08/03 06:38:00;;;;;;;6.43;4.53;;;22.80;99.90;;;;;;4994285;28;20022;-82
2022/08/03 06:40:30;;;;;;;13.52;5.25;;;22.80;99.90;;;;;;4987802;28;20087;-83
2022/08/03 06:43:00;;;;;;;7.93;4.18;;;22.80;99.90;;;;;;4992354;28;20026;-80
2022/08/03 06:45:27;;;;;;;5.65;3.92;;;22.70;99.90;;;;;;4991335;28;20069;-80
2022/08/03 06:48:19;;;;;;;7.88;4.20;;;22.70;99.90;;;;;;4989781;28;20320;-84
2022/08/03 06:50:45;;;;;;;5.95;4.18;;;22.70;99.90;;;;;;4988799;28;20276;-83
2022/08/03 06:53:11;;;;;;;8.93;3.75;;;22.70;99.90;;;;;;4992331;28;20089;-82
2022/08/03 06:55:36;;;;;;;5.95;3.85;;;22.70;99.90;;;;;;4988857;28;20158;-85
2022/08/03 06:58:02;;;;;;;4.82;3.70;;;22.80;99.90;;;;;;4992122;28;20556;-85
2022/08/03 07:00:29;;;;;;;6.25;4.07;;;22.80;99.90;;;;;;4998007;28;20063;-86
2022/08/03 07:02:55;;;;;;;5.13;4.00;;;22.80;99.90;;;;;;4992783;28;20034;-87
2022/08/03 07:05:21;;;;;;;5.18;3.55;;;22.90;99.90;;;;;;4987381;28;20103;-83
2022/08/03 07:07:48;;;;;;;4.88;3.60;;;23.00;99.90;;;;;;4989159;28;20031;-85
2022/08/03 07:10:13;;;;;;;10.18;3.65;;;23.00;99.90;;;;;;4991163;28;20037;-88
2022/08/03 07:12:40;;;;;;;9.77;4.65;;;23.10;99.90;;;;;;4988605;28;20022;-86
2022/08/03 07:15:12;;;;;;;8.02;4.40;;;23.10;99.90;;;;;;5034731;23;20088;-75
2022/08/03 07:17:37;;;;;;;8.73;4.20;;;23.10;99.90;;;;;;5017137;28;20298;-75
2022/08/03 07:20:07;;;;;;;5.53;3.40;;;23.00;99.90;;;;;;5015307;28;20164;-76
2022/08/03 07:22:38;;;;;;;5.28;4.07;;;23.10;99.90;;;;;;5013049;28;20022;-75
2022/08/03 07:25:05;;;;;;;5.72;4.00;;;23.10;99.90;;;;;;5012924;28;20033;-75
2022/08/03 07:27:31;;;;;;;5.32;3.50;;;23.10;99.90;;;;;;5013692;28;20029;-76
2022/08/03 07:30:05;;;;;;;3.47;2.95;;;23.20;99.90;;;;;;5008939;28;20026;-78
2022/08/03 07:32:34;;;;;;;6.68;3.35;;;23.30;99.90;;;;;;5012471;28;20045;-79
2022/08/03 07:35:00;;;;;;;7.28;4.05;;;23.40;99.90;;;;;;5006874;28;20065;-78
2022/08/03 07:37:32;;;;;;;9.07;3.70;;;23.40;99.90;;;;;;5009801;28;20049;-79
2022/08/03 07:39:59;;;;;;;6.22;3.33;;;23.50;99.90;;;;;;4999912;28;20633;-79
2022/08/03 07:42:29;;;;;;;3.83;3.10;;;23.60;99.90;;;;;;5011267;28;20061;-79
2022/08/03 07:44:55;;;;;;;6.72;3.88;;;23.60;99.90;;;;;;5018730;28;20606;-77
2022/08/03 07:47:29;;;;;;;4.88;3.28;;;23.70;99.90;;;;;;5006746;28;20029;-77
2022/08/03 07:49:55;;;;;;;5.13;3.00;;;23.80;99.90;;;;;;5011734;28;20030;-77
2022/08/03 07:55:29;;;;;;;4.28;2.97;;;24.00;99.90;;;;;;5021094;28;20041;-84
2022/08/03 07:58:11;;;;;;;6.15;2.95;;;24.10;99.90;;;;;;5004426;28;20041;-84
2022/08/03 08:00:52;;;;;;;5.13;3.22;;;24.10;99.80;;;;;;5007716;28;20025;-84
2022/08/03 08:03:20;;;;;;;4.53;3.10;;;24.20;99.50;;;;;;5002917;28;20379;-84
2022/08/03 08:05:53;;;;;;;4.00;2.83;;;24.30;99.40;;;;;;5008535;28;20032;-84
2022/08/03 08:08:19;;;;;;;5.40;2.63;;;24.30;99.40;;;;;;5007697;28;20021;-85
2022/08/03 08:10:45;;;;;;;7.65;3.15;;;24.40;99.50;;;;;;5019839;28;20121;-86
2022/08/03 08:13:11;;;;;;;6.45;3.05;;;24.40;99.20;;;;;;5011938;28;20030;-83
2022/08/03 08:15:52;;;;;;;3.88;2.72;;;24.50;99.20;;;;;;5009452;28;20029;-87
2022/08/03 08:18:30;;;;;;;5.40;2.83;;;24.60;98.70;;;;;;5011612;28;20014;-86
2022/08/03 08:21:00;;;;;;;4.07;2.65;;;24.70;98.40;;;;;;5012187;28;20066;-85
2022/08/03 08:23:31;;;;;;;5.80;2.80;;;24.80;98.30;;;;;;5013221;28;20518;-86
2022/08/03 08:26:06;;;;;;;4.28;2.75;;;24.90;98.20;;;;;;5016515;28;20136;-85
2022/08/03 08:28:47;;;;;;;4.18;2.80;;;25.00;98.20;;;;;;5017681;28;20022;-85
2022/08/03 08:31:12;;;;;;;5.05;2.75;;;25.10;98.10;;;;;;5020007;28;20151;-85
2022/08/03 08:33:50;;;;;;;6.13;2.95;;;25.20;97.90;;;;;;5021549;28;20112;-85
2022/08/03 08:36:16;;;;;;;8.68;2.80;;;25.30;97.90;;;;;;5018294;28;20475;-85
2022/08/03 08:38:57;;;;;;;3.95;2.30;;;25.30;97.80;;;;;;5018647;28;20040;-85
2022/08/03 08:41:32;;;;;;;3.53;2.60;;;25.50;97.30;;;;;;5015068;28;20030;-85
2022/08/03 08:44:01;;;;;;;5.38;2.65;;;25.60;97.20;;;;;;5013150;28;20057;-85
2022/08/03 08:46:32;;;;;;;4.55;2.35;;;25.70;97.30;;;;;;5020025;28;20055;-86
2022/08/03 08:49:01;;;;;;;5.75;2.75;;;25.70;97.40;;;;;;5016506;28;20033;-85
2022/08/03 08:51:30;;;;;;;4.30;2.63;;;25.80;97.20;;;;;;5019435;28;20021;-85
2022/08/03 08:54:02;;;;;;;2.42;2.13;;;25.80;96.80;;;;;;5020339;28;20025;-86
2022/08/03 08:56:37;;;;;;;6.35;2.30;;;25.90;96.50;;;;;;5028924;28;20036;-86
2022/08/03 08:59:03;;;;;;;8.50;2.40;;;26.00;96.20;;;;;;5013689;28;20441;-85
2022/08/03 09:01:30;;;;;;;3.17;2.33;;;26.10;96.10;;;;;;5009379;28;20027;-88
2022/08/03 09:03:59;;;;;;;4.95;2.60;;;26.10;95.90;;;;;;5017365;28;20367;-88
2022/08/03 09:06:25;;;;;;;3.75;2.00;;;26.20;95.80;;;;;;5010702;28;20060;-88
2022/08/03 09:08:56;;;;;;;3.67;2.20;;;26.30;95.50;;;;;;5011071;28;20061;-89
2022/08/03 09:11:34;;;;;;;5.00;2.25;;;26.30;95.50;;;;;;5009664;28;20030;-87
2022/08/03 09:14:00;;;;;;;3.65;2.08;;;26.40;95.20;;;;;;5023785;28;20028;-86
2022/08/03 09:16:29;;;;;;;3.38;2.38;;;26.50;95.00;;;;;;5028195;28;20021;-86
2022/08/03 09:19:11;;;;;;;3.35;2.22;;;26.60;94.90;;;;;;5009629;28;20037;-86
2022/08/03 09:21:39;;;;;;;4.78;2.15;;;26.60;94.60;;;;;;5009338;28;20109;-86
2022/08/03 09:24:06;;;;;;;3.47;2.45;;;26.70;94.30;;;;;;5004012;28;20061;-85
2022/08/03 09:26:50;;;;;;;2.33;1.95;;;26.80;94.40;;;;;;5008051;28;20101;-85
2022/08/03 09:29:21;;;;;;;3.75;2.03;;;26.90;93.70;;;;;;5013771;28;20034;-85
2022/08/03 09:31:47;;;;;;;3.08;2.47;;;26.90;93.70;;;;;;5014123;28;20026;-86
2022/08/03 09:34:15;;;;;;;3.08;2.15;;;27.00;94.00;;;;;;5026848;28;20081;-86
2022/08/03 09:36:44;;;;;;;3.67;2.10;;;27.00;94.00;;;;;;5022688;28;20076;-87
2022/08/03 09:39:19;;;;;;;4.18;2.60;;;27.10;94.00;;;;;;5010526;28;20037;-87
2022/08/03 09:42:05;;;;;;;3.83;1.98;;;27.10;93.80;;;;;;5012091;28;20060;-88
2022/08/03 09:44:48;;;;;;;2.22;1.98;;;27.20;93.10;;;;;;5014009;28;20029;-87
2022/08/03 09:47:28;;;;;;;7.63;2.10;;;27.20;92.80;;;;;;5014132;28;20494;-81
2022/08/03 09:50:00;;;;;;;2.22;2.03;;;27.30;92.60;;;;;;5014144;28;20077;-79
2022/08/03 09:52:32;;;;;;;5.10;2.85;;;27.30;92.40;;;;;;5016993;28;20026;-79
2022/08/03 09:55:00;;;;;;;3.40;2.08;;;27.40;92.40;;;;;;5026216;28;20133;-78
2022/08/03 09:57:29;;;;;;;3.78;2.25;;;27.40;92.10;;;;;;5009225;28;20475;-78
2022/08/03 10:00:15;;;;;;;5.10;2.45;;;27.50;92.00;;;;;;5016099;28;20487;-79
2022/08/03 10:02:44;;;;;;;2.92;2.20;;;27.50;90.90;;;;;;5030653;28;20026;-78
2022/08/03 10:05:31;;;;;;;3.70;2.05;;;27.50;91.10;;;;;;5008922;28;20092;-78
2022/08/03 10:08:14;;;;;;;2.28;2.08;;;27.60;91.10;;;;;;5010512;28;20065;-79
2022/08/03 10:10:45;;;;;;;4.57;2.25;;;27.60;90.80;;;;;;5009425;28;20075;-88
2022/08/03 10:13:22;;;;;;;5.32;1.80;;;27.70;90.60;;;;;;5007424;28;20061;-87
2022/08/03 10:16:06;;;;;;;4.18;2.33;;;27.80;90.50;;;;;;5006093;28;20076;-87
2022/08/03 10:18:41;;;;;;;3.20;1.92;;;27.90;90.10;;;;;;5030930;28;20479;-86
2022/08/03 10:21:10;;;;;;;4.25;2.08;;;28.00;89.60;;;;;;5005899;28;20033;-87
2022/08/03 10:23:39;;;;;;;3.42;2.45;;;28.10;89.50;;;;;;5005476;28;20030;-87
2022/08/03 10:26:21;;;;;;;4.05;2.00;;;28.20;89.60;;;;;;5004814;28;20037;-86
2022/08/03 10:28:53;;;;;;;8.35;2.30;;;28.20;89.20;;;;;;5003259;28;20030;-86
2022/08/03 10:31:32;;;;;;;2.10;1.90;;;28.30;89.50;;;;;;5003564;28;20034;-87
2022/08/03 10:34:05;;;;;;;4.93;1.90;;;28.30;86.90;;;;;;5006303;28;20034;-87
2022/08/03 10:36:39;;;;;;;1.90;1.60;;;28.40;86.90;;;;;;5009745;28;20026;-87
2022/08/03 10:39:05;;;;;;;4.78;2.13;;;28.40;86.70;;;;;;5010081;28;20121;-87
2022/08/03 10:41:35;;;;;;;4.00;2.17;;;28.50;86.00;;;;;;5014800;28;20120;-87
2022/08/03 10:44:22;;;;;;;2.38;1.80;;;28.50;86.20;;;;;;5014196;28;20065;-89
2022/08/03 10:46:56;;;;;;;1.98;1.70;;;28.60;86.70;;;;;;5013484;28;20065;-86
2022/08/03 10:49:26;;;;;;;2.40;1.80;;;28.70;84.60;;;;;;5018160;28;20131;-87
2022/08/03 10:52:01;;;;;;;2.47;2.10;;;28.80;84.20;;;;;;5014212;28;20046;-87
2022/08/03 10:57:46;;;;;;;3.17;1.80;;;28.90;82.00;;;;;;5008700;28;20116;-89
2022/08/03 11:00:20;;;;;;;1.95;1.60;;;28.90;80.60;;;;;;5007426;28;20030;-89
2022/08/03 11:03:14;;;;;;;2.63;1.73;;;28.90;79.60;;;;;;5025531;28;20061;-89
2022/08/03 11:05:45;;;;;;;4.25;1.73;;;29.00;79.30;;;;;;5012830;28;20022;-89
2022/08/03 11:08:33;;;;;;;2.97;1.70;;;29.10;78.50;;;;;;5015220;28;20442;-89
2022/08/03 11:11:19;;;;;;;2.15;1.70;;;29.10;78.40;;;;;;5010265;28;20394;-89
2022/08/03 11:14:08;;;;;;;1.60;1.50;;;29.10;78.30;;;;;;5011799;28;20071;-89
2022/08/03 11:17:06;;;;;;;1.88;1.30;;;29.10;78.50;;;;;;5012380;28;20029;-89
2022/08/03 11:19:49;;;;;;;4.72;2.10;;;29.20;78.60;;;;;;5014322;28;20029;-89
2022/08/03 11:22:15;;;;;;;1.80;1.30;;;29.20;76.50;;;;;;5013208;28;20029;-89
2022/08/03 11:24:42;;;;;;;3.97;1.63;;;29.30;76.30;;;;;;5014290;28;20095;-89
2022/08/03 11:27:21;;;;;;;3.35;1.92;;;29.30;76.10;;;;;;5009650;28;20427;-89
2022/08/03 11:30:07;;;;;;;2.97;1.48;;;29.30;76.20;;;;;;5011570;28;20033;-89
2022/08/03 11:32:39;;;;;;;2.65;1.80;;;29.30;76.30;;;;;;5009745;28;20030;-88
2022/08/03 11:35:34;;;;;;;4.10;1.63;;;29.30;74.80;;;;;;5015335;28;20529;-89
2022/08/03 11:38:03;;;;;;;3.97;1.80;;;29.30;74.20;;;;;;5006657;28;20056;-89
2022/08/03 11:40:40;;;;;;;5.63;1.67;;;29.40;73.60;;;;;;5030059;28;20038;-89
2022/08/03 11:43:21;;;;;;;1.98;1.42;;;29.50;72.40;;;;;;5014999;28;20086;-89
2022/08/03 11:46:20;;;;;;;3.47;1.67;;;29.50;71.20;;;;;;5015717;28;20120;-89
2022/08/03 11:48:49;;;;;;;4.13;2.00;;;29.40;72.90;;;;;;5012855;28;20030;-89
2022/08/03 11:51:38;;;;;;;1.92;1.50;;;29.40;73.10;;;;;;5014917;28;20025;-90
2022/08/03 11:54:05;;;;;;;2.97;1.63;;;29.50;73.30;;;;;;5029235;28;20028;-89
2022/08/03 11:56:51;;;;;;;3.63;1.90;;;29.50;73.00;;;;;;5019322;28;20037;-89
2022/08/03 11:59:30;;;;;;;2.30;1.45;;;29.60;72.70;;;;;;5014702;28;20441;-89
2022/08/03 12:02:16;;;;;;;2.38;1.73;;;29.60;72.20;;;;;;5012229;28;20157;-89
2022/08/03 12:05:01;;;;;;;3.63;1.50;;;29.60;72.40;;;;;;5010224;28;20120;-89
2022/08/03 12:07:29;;;;;;;4.30;1.63;;;29.60;72.20;;;;;;5015513;28;20104;-89
2022/08/03 12:10:14;;;;;;;2.42;1.80;;;29.60;72.30;;;;;;5009529;28;20038;-88
2022/08/03 12:12:41;;;;;;;2.45;1.70;;;29.70;72.10;;;;;;5011707;28;20061;-90
2022/08/03 12:15:10;;;;;;;6.60;1.63;;;29.70;71.90;;;;;;5012379;28;20038;-90
2022/08/03 12:17:51;;;;;;;3.92;1.70;;;29.70;71.40;;;;;;5011406;28;20481;-88
2022/08/03 12:20:26;;;;;;;2.08;1.80;;;29.80;71.70;;;;;;5028808;28;20034;-90
2022/08/03 12:22:52;;;;;;;2.78;1.75;;;29.80;71.80;;;;;;5013712;28;20072;-91
2022/08/03 12:25:20;;;;;;;2.00;1.52;;;29.80;71.70;;;;;;5017018;28;20030;-91
2022/08/03 12:28:05;;;;;;;7.50;1.65;;;29.80;71.50;;;;;;5014732;28;20037;-92
2022/08/03 12:33:26;;;;;;;2.50;1.70;;;29.80;70.90;;;;;;5011107;28;20033;-91
2022/08/03 12:36:12;;;;;;;2.45;1.67;;;29.90;70.50;;;;;;5013709;28;20018;-91
2022/08/03 12:38:38;;;;;;;3.17;1.92;;;29.90;70.40;;;;;;5017441;28;20030;-90
2022/08/03 12:41:12;;;;;;;5.22;2.08;;;29.90;70.30;;;;;;5026834;28;20029;-90
2022/08/03 12:43:50;;;;;;;3.90;2.00;;;29.90;70.30;;;;;;5015152;28;20185;-89
2022/08/03 12:46:19;;;;;;;3.13;2.00;;;30.00;69.10;;;;;;5010209;28;20038;-90
2022/08/03 12:49:01;;;;;;;4.93;2.00;;;30.00;69.40;;;;;;5011220;28;20034;-90
2022/08/03 12:51:33;;;;;;;2.70;1.40;;;30.00;69.60;;;;;;5024135;28;20463;-91
2022/08/03 12:54:00;;;;;;;2.42;1.67;;;30.10;69.10;;;;;;5012142;28;20028;-90
2022/08/03 12:56:26;;;;;;;2.05;1.65;;;30.00;69.20;;;;;;5012956;28;20026;-91
2022/08/03 12:58:52;;;;;;;2.22;1.80;;;30.00;68.60;;;;;;5013903;28;20402;-91
2022/08/03 13:01:36;;;;;;;2.63;1.90;;;30.10;68.30;;;;;;5010933;28;20034;-91
2022/08/03 13:04:02;;;;;;;2.95;1.55;;;30.10;68.30;;;;;;5011579;28;20431;-90
2022/08/03 13:06:27;;;;;;;2.67;1.80;;;30.10;68.50;;;;;;5012872;28;20030;-91
2022/08/03 13:09:06;;;;;;;2.75;1.77;;;30.10;68.00;;;;;;5031696;28;20030;-91
2022/08/03 13:11:33;;;;;;;4.13;1.60;;;30.20;67.10;;;;;;5010458;28;20041;-90
2022/08/03 13:14:02;;;;;;;3.80;1.63;;;30.20;67.20;;;;;;5010222;28;20383;-90
2022/08/03 13:16:33;;;;;;;2.17;1.70;;;30.20;66.90;;;;;;5009729;28;20103;-91
2022/08/03 13:18:59;;;;;;;3.33;1.73;;;30.20;67.20;;;;;;5009043;28;20451;-91